Blue Oak Ranch Reserve, California Weather observations

Data are for 10 minute period ending at time listed.
 Day   Time   Solar   Ave.   Ave.  Ave.  Vector  Max.   Baro.   Total    
  of    of     Rad.   Air    Rel.  Wind   Wind   Wind  Press.  Precip.   
Year   Day            Temp.  Hum.  Speed  Dir.   Gust                    
2018   (PST)  Kw/m2    F      %     mph   deg.    mph    mb.     in.     
-------------------------------------------------------------------------
 348   15:00   0.09   54.8    71    4.3   183    10.7   952.2    0.00 
 348   15:10   0.10   54.3    70    5.7   181    12.0   952.2    0.00 
 348   15:20   0.15   54.2    70    4.0   175     9.6   952.2    0.00 
 348   15:30   0.21   55.0    68    4.9   153    12.4   952.3    0.00 
 348   15:40   0.23   55.7    67    5.2   149    11.3   952.2    0.00 
 348   15:50   0.10   55.3    67    5.8   160    11.3   952.3    0.00 
 348   16:00   0.03   54.3    68    5.0   157    10.4   952.4    0.00 
 348   16:10   0.02   54.0    70    4.0   144     7.7   952.5    0.00 
 348   16:20   0.02   53.7    70    4.1   128     7.7   952.6    0.00 
 348   16:30   0.01   53.5    70    4.7   134    10.4   952.6    0.00 
 348   16:40   0.01   53.1    70    5.9   139    10.2   952.7    0.00 
 348   16:50   0.00   53.0    70    4.5   121    11.1   952.8    0.00 
 348   17:00   0.00   53.0    70    3.1   120    10.0   952.8    0.00 
 348   17:10   0.00   52.8    70    4.1   144    10.0   952.8    0.00 
 348   17:20   0.00   52.8    71    4.4   153     7.8   952.8    0.00 
 348   17:30   0.00   52.7    71    2.2   132     4.4   952.8    0.00 
 348   17:40   0.00   52.6    72    2.0   131     5.1   952.9    0.00 
 348   17:50   0.00   52.7    71    1.7   168     3.6   952.9    0.00 
 348   18:00   0.00   52.4    73    1.4   152     4.5   952.8    0.00 
 348   18:10   0.00   52.1    74    0.4   133     2.8   952.8    0.00 
 348   18:20   0.00   51.7    74    2.3   122     5.8   952.7    0.00 
 348   18:30   0.00   51.2    76    1.7   165     4.4   952.6    0.00 
 348   18:40   0.00   50.8    77    3.3   179     6.7   952.6    0.00 
 348   18:50   0.00   50.3    78    1.0   156     4.2   952.7    0.00 
 348   19:00   0.00   48.1    80    1.3    94     2.7   952.7    0.00 
 348   19:10   0.00   47.0    83    0.1   119     1.2   952.7    0.00 
 348   19:20   0.00   47.0    85    0.3   297     1.8   952.7    0.00 
 348   19:30   0.00   46.1    85    0.5    39     1.8   952.8    0.00 
 348   19:40   0.00   44.8    86    0.9    50     2.3   953.0    0.00 
 348   19:50   0.00   45.2    88    0.5    40     1.5   953.0    0.00 
 348   20:00   0.00   45.8    88    0.5    35     1.3   952.9    0.00 
 348   20:10   0.00   46.4    88    0.7    35     2.0   952.9    0.00 
 348   20:20   0.00   46.7    86    0.1   126     1.0   952.8    0.00 
 348   20:30   0.00   46.4    86    0.3   205     1.6   952.7    0.00 
 348   20:40   0.00   46.0    86    1.6    67     2.8   952.6    0.00 
 348   20:50   0.00   45.0    87    1.7    92     3.3   952.7    0.00 
 348   21:00   0.00   44.6    88    0.9   134     2.3   952.7    0.00 
 348   21:10   0.00   44.9    89    0.3    72     2.2   952.8    0.00 
 348   21:20   0.00   44.9    89    1.4    72     2.2   952.8    0.00 
 348   21:30   0.00   45.1    89    0.3    84     1.4   952.8    0.00 
 348   21:40   0.00   45.4    89    0.1   222     1.4   952.9    0.00 
 348   21:50   0.00   45.8    89    0.5   110     2.6   952.9    0.00 
 348   22:00   0.00   46.9    88    0.9    58     2.3   953.0    0.00 
 348   22:10   0.00   47.3    86    0.8    46     2.4   953.0    0.00 
 348   22:20   0.00   46.8    86    0.4    33     1.2   953.2    0.00 
 348   22:30   0.00   46.1    87    0.3   302     1.2   953.3    0.00 
 348   22:40   0.00   45.0    88    0.9    40     2.0   953.2    0.00 
 348   22:50   0.00   44.3    89    0.9   333     2.1   953.2    0.00 
 348   23:00   0.00   44.3    90    0.1   266     1.6   953.3    0.00 
 348   23:10   0.00   44.1    90    0.5   339     1.8   953.4    0.00 
 348   23:20   0.00   44.2    91    0.7   297     2.1   953.5    0.00 
 348   23:30   0.00   44.3    91    0.2    87     1.2   953.3    0.00 
 348   23:40   0.00   43.4    91    1.9    97     4.5   953.1    0.00 
 348   23:50   0.00   43.1    91    0.6   101     2.9   953.1    0.00 
 349    0:00   0.00   43.1    92    1.0   258     2.6   953.2    0.00 
 349    0:10   0.00   44.0    92    0.5     7     2.2   953.1    0.00 
 349    0:20   0.00   43.6    91    1.2   298     2.3   953.1    0.00 
 349    0:30   0.00   43.3    92    0.5     2     1.4   953.1    0.00 
 349    0:40   0.00   43.7    92    0.4    39     1.5   953.0    0.00 
 349    0:50   0.00   44.1    92    0.4    82     2.3   953.0    0.00 
 349    1:00   0.00   44.4    92    0.1   305     1.2   953.0    0.00 
 349    1:10   0.00   44.1    92    0.1   140     0.9   952.8    0.00 
 349    1:20   0.00   44.0    92    1.4    66     2.8   952.7    0.00 
 349    1:30   0.00   43.4    92    2.2    84     3.4   952.5    0.00 
 349    1:40   0.00   43.9    93    2.2    72     4.3   952.5    0.00 
 349    1:50   0.00   44.3    92    1.5    56     3.9   952.5    0.00 
 349    2:00   0.00   44.3    92    0.4   277     1.5   952.6    0.00 
 349    2:10   0.00   43.7    92    0.8    64     3.1   952.5    0.00 
 349    2:20   0.00   42.8    92    1.8    71     3.1   952.4    0.00 
 349    2:30   0.00   42.0    92    2.1    73     4.0   952.4    0.00 
 349    2:40   0.00   41.7    93    0.7    65     2.3   952.5    0.00 
 349    2:50   0.00   42.0    93    0.7    22     2.4   952.5    0.00 
 349    3:00   0.00   42.1    93    2.3    82     4.5   952.4    0.00 
 349    3:10   0.00   41.8    94    2.6    79     4.9   952.3    0.00 
 349    3:20   0.00   42.2    94    2.7    75     5.4   952.2    0.00 
 349    3:30   0.00   43.6    94    3.4    72     7.3   951.9    0.00 
 349    3:40   0.00   43.3    93    2.3    66     5.3   951.9    0.00 
 349    3:50   0.00   43.2    93    2.4    66     5.6   952.0    0.00 
 349    4:00   0.00   43.1    93    2.2    90     4.4   951.9    0.00 
 349    4:10   0.00   43.3    94    2.3    87     4.4   951.8    0.00 
 349    4:20   0.00   43.2    93    1.8   107     3.8   951.7    0.00 
 349    4:30   0.00   42.6    93    1.6    92     3.4   951.6    0.00 
 349    4:40   0.00   42.4    94    0.5    64     2.3   951.5    0.00 
 349    4:50   0.00   42.6    94    1.3    77     3.2   951.5    0.00 
 349    5:00   0.00   42.1    93    1.0    84     3.9   951.3    0.00 
 349    5:10   0.00   42.0    94    0.3    85     1.3   951.3    0.00 
 349    5:20   0.00   41.4    93    1.8    89     3.4   951.2    0.00 
 349    5:30   0.00   40.6    94    0.9    71     3.5   951.1    0.00 
 349    5:40   0.00   41.2    94    0.9    64     2.8   951.1    0.00 
 349    5:50   0.00   41.8    94    1.6   305     2.7   951.2    0.00 
 349    6:00   0.00   42.4    94    0.4   298     1.6   951.2    0.00 
 349    6:10   0.00   41.9    94    0.3    40     1.4   951.4    0.00 
 349    6:20   0.00   41.5    94    0.3   295     2.2   951.5    0.00 
 349    6:30   0.00   41.9    94    0.7   289     2.1   951.6    0.00 
 349    6:40   0.00   41.7    94    1.9   285     3.2   951.7    0.00 
 349    6:50   0.00   40.9    94    1.5   333     3.2   951.8    0.00 
 349    7:00   0.00   40.9    94    1.4    96     2.8   951.6    0.00 
 349    7:10   0.00   40.4    94    1.4   302     3.4   951.7    0.00 
 349    7:20   0.01   40.7    94    0.0     0     0.0   951.8    0.00 
 349    7:30   0.01   40.8    94    1.4   293     3.4   952.0    0.00 
 349    7:40   0.01   40.5    94    1.2    90     2.7   952.0    0.00 
 349    7:50   0.02   40.3    94    1.3   293     2.4   952.0    0.00 
 349    8:00   0.05   40.6    94    0.8    65     2.6   952.0    0.00 
 349    8:10   0.09   42.1    94    0.8    58     3.4   952.0    0.00 
 349    8:20   0.16   44.1    93    1.3    92     3.3   952.0    0.00 
 349    8:30   0.19   45.6    91    2.4   139     3.8   951.9    0.00 
 349    8:40   0.21   48.8    86    0.7   177     2.2   951.8    0.00 
 349    8:50   0.25   51.7    78    0.9   137     2.6   951.9    0.00 
 349    9:00   0.27   52.2    72    1.3   138     3.1   952.0    0.00 
 349    9:10   0.27   54.2    67    1.4   163     4.0   952.0    0.00 
 349    9:20   0.26   53.6    66    3.5   150     7.1   952.0    0.00 
 349    9:30   0.28   53.0    70    4.5   158     7.2   952.0    0.00 
 349    9:40   0.35   53.4    70    5.1   162     8.4   952.2    0.00 
 349    9:50   0.29   54.5    69    4.0   166     6.4   952.2    0.00 
 349   10:00   0.18   53.5    71    3.9   167     6.9   952.5    0.00 
 349   10:10   0.30   53.4    71    3.6   144     6.9   952.7    0.00 
 349   10:20   0.41   54.8    68    4.3   143     7.8   952.7    0.00 
 349   10:30   0.42   56.3    64    4.4   154     8.4   952.7    0.00 
 349   10:40   0.44   56.4    63    4.4   160     8.0   952.5    0.00 
 349   10:50   0.46   56.8    60    4.7   170     8.9   952.6    0.00 
 349   11:00   0.44   57.5    58    4.9   178     9.5   952.7    0.00 
 349   11:10   0.47   56.8    58    6.3   167     9.9   952.7    0.00 
 349   11:20   0.53   58.1    57    4.0   170     7.9   952.7    0.00 
 349   11:30   0.47   58.7    54    4.3   172     7.2   952.5    0.00 
 349   11:40   0.58   59.3    53    4.3   180     7.6   952.3    0.00 
 349   11:50   0.51   58.9    54    4.2   157     8.3   952.1    0.00 
 349   12:00   0.37   58.2    54    4.0   172     6.9   951.9    0.00 
 349   12:10   0.27   58.2    53    4.6   180     8.8   951.7    0.00 
 349   12:20   0.22   57.2    54    5.4   158     9.5   951.6    0.00 
 349   12:30   0.32   57.1    56    3.7   154     6.7   951.5    0.00 
 349   12:40   0.33   57.8    56    4.4   169     7.3   951.4    0.00 
 349   12:50   0.43   58.1    56    4.8   189     9.4   951.4    0.00 
 349   13:00   0.56   59.1    54    5.6   191     8.7   951.3    0.00 
 349   13:10   0.45   59.0    54    4.6   178     8.3   951.3    0.00 
 349   13:20   0.48   59.2    51    4.8   162     9.4   951.2    0.00 
 349   13:30   0.30   58.7    49    3.8   166     7.7   951.1    0.00 
 349   13:40   0.33   58.5    50    4.7   158     8.4   951.0    0.00 
 349   13:50   0.24   57.6    51    5.2   152    10.2   950.8    0.00 
 349   14:00   0.24   57.0    54    4.7   170     8.8   950.8    0.00 
 349   14:10   0.34   57.7    53    3.4   172     7.1   950.8    0.00 
 349   14:20   0.37   58.7    53    3.9   155     8.4   950.8    0.00 
 349   14:30   0.16   57.8    55    3.0   154     7.0   950.7    0.00 
 349   14:40   0.14   57.3    56    4.9   147     8.0   950.6    0.00 
 349   14:50   0.10   57.0    57    4.8   142     9.1   950.5    0.00 

Return to Blue Oak Ranch Reserve graphs page.


Western Regional Climate Center,wrcc@dri.edu